Time;durP1;ratioP1;P1;durP2;ratioP2;P2;SDS_P1;SDS_P2;PMS_P1;PMS_P2;Temp;Humidity;BMP_temperature;BMP_pressure;BME280_temperature;BME280_humidity;BME280_pressure;Samples;Min_cycle;Max_cycle;Signal;HPM_P1;HPM_P2
2021/08/19 00:01:46;;;;;;;0.10;0.10;;;18.80;99.90;;;;;;5067254;28;20677;-86
2021/08/19 00:04:11;;;;;;;0.30;0.30;;;18.80;99.90;;;;;;5049501;28;20646;-86
2021/08/19 00:06:37;;;;;;;0.33;0.20;;;18.80;99.90;;;;;;5048936;28;20208;-87
2021/08/19 00:09:03;;;;;;;0.40;0.40;;;18.80;99.90;;;;;;5050307;28;20973;-86
2021/08/19 00:11:29;;;;;;;0.37;0.37;;;18.80;99.90;;;;;;5050197;28;20182;-86
2021/08/19 00:13:54;;;;;;;0.47;0.40;;;18.80;99.90;;;;;;5050775;28;20181;-86
2021/08/19 00:16:20;;;;;;;0.20;0.20;;;18.80;99.90;;;;;;5051350;28;20797;-86
2021/08/19 00:18:45;;;;;;;0.40;0.30;;;18.80;99.90;;;;;;5046129;28;20611;-86
2021/08/19 00:21:11;;;;;;;0.23;0.17;;;18.80;99.90;;;;;;5063688;28;20193;-86
2021/08/19 00:23:36;;;;;;;0.30;0.30;;;18.80;99.90;;;;;;5051420;28;20189;-86
2021/08/19 00:26:04;;;;;;;0.20;0.20;;;18.80;99.90;;;;;;5053687;28;20212;-87
2021/08/19 00:28:30;;;;;;;0.17;0.17;;;18.70;99.90;;;;;;5044957;28;20293;-86
2021/08/19 00:30:55;;;;;;;0.30;0.30;;;18.70;99.90;;;;;;5053440;28;20261;-86
2021/08/19 00:33:21;;;;;;;0.20;0.20;;;18.60;99.90;;;;;;5054475;28;20188;-86
2021/08/19 00:35:47;;;;;;;0.10;0.10;;;18.60;99.90;;;;;;5068847;28;20205;-85
2021/08/19 00:38:12;;;;;;;0.10;0.10;;;18.60;99.90;;;;;;5054260;28;20257;-86
2021/08/19 00:40:38;;;;;;;0.30;0.30;;;18.60;99.90;;;;;;5054145;28;20185;-86
2021/08/19 00:43:07;;;;;;;0.27;0.27;;;18.60;99.90;;;;;;5053612;28;20227;-86
2021/08/19 00:45:35;;;;;;;0.20;0.20;;;18.50;99.90;;;;;;5053607;28;20274;-86
2021/08/19 00:48:01;;;;;;;0.17;0.17;;;18.50;99.90;;;;;;5054991;28;20288;-86
2021/08/19 00:50:27;;;;;;;0.30;0.30;;;18.50;99.90;;;;;;5053870;28;20264;-86
2021/08/19 00:52:52;;;;;;;0.10;0.10;;;18.50;99.90;;;;;;5054021;28;20182;-86
2021/08/19 00:55:18;;;;;;;0.13;0.10;;;18.50;99.90;;;;;;5050836;28;20181;-86
2021/08/19 00:57:44;;;;;;;0.40;0.40;;;18.40;99.90;;;;;;5052217;28;20331;-85
2021/08/19 01:00:12;;;;;;;0.70;0.37;;;18.30;99.90;;;;;;5053810;28;20203;-86
2021/08/19 01:02:42;;;;;;;0.27;0.27;;;18.30;99.90;;;;;;5053420;28;20182;-86
2021/08/19 01:05:09;;;;;;;0.43;0.43;;;18.30;99.90;;;;;;5050306;28;20604;-86
2021/08/19 01:07:34;;;;;;;0.20;0.20;;;18.30;99.90;;;;;;5053422;28;20178;-87
2021/08/19 01:10:01;;;;;;;0.23;0.23;;;18.30;99.90;;;;;;5053778;28;20202;-86
2021/08/19 01:12:26;;;;;;;0.40;0.40;;;18.30;99.90;;;;;;5053161;28;20178;-87
2021/08/19 01:14:52;;;;;;;0.20;0.20;;;18.30;99.90;;;;;;5053339;28;20273;-86
2021/08/19 01:17:18;;;;;;;0.63;0.30;;;18.30;99.90;;;;;;5053266;28;20181;-86
2021/08/19 01:19:49;;;;;;;0.10;0.10;;;18.30;99.90;;;;;;5052903;28;20224;-86
2021/08/19 01:22:15;;;;;;;0.63;0.63;;;18.30;99.90;;;;;;5052221;28;20197;-86
2021/08/19 01:24:41;;;;;;;0.27;0.27;;;18.30;99.90;;;;;;5052679;28;20269;-86
2021/08/19 01:27:18;;;;;;;0.20;0.20;;;18.30;99.90;;;;;;5054071;28;20263;-86
2021/08/19 01:29:46;;;;;;;0.30;0.30;;;18.30;99.90;;;;;;5049654;28;20219;-85
2021/08/19 01:32:12;;;;;;;0.20;0.20;;;18.30;99.90;;;;;;5049986;28;20178;-86
2021/08/19 01:34:39;;;;;;;0.57;0.50;;;18.30;99.90;;;;;;5049215;28;20643;-86
2021/08/19 01:37:06;;;;;;;0.43;0.20;;;18.20;99.90;;;;;;5052141;28;20181;-85
2021/08/19 01:39:32;;;;;;;0.47;0.30;;;18.20;99.90;;;;;;5052138;28;20623;-86
2021/08/19 01:41:57;;;;;;;0.90;0.90;;;18.20;99.90;;;;;;5054314;28;20181;-87
2021/08/19 01:44:23;;;;;;;0.50;0.50;;;18.20;99.90;;;;;;5049557;28;20197;-86
2021/08/19 01:46:59;;;;;;;0.10;0.10;;;18.20;99.90;;;;;;5054618;28;20570;-86
2021/08/19 01:49:27;;;;;;;0.30;0.30;;;18.20;99.90;;;;;;5048310;28;20296;-86
2021/08/19 01:51:53;;;;;;;0.27;0.27;;;18.20;99.90;;;;;;5051288;28;20201;-86
2021/08/19 01:54:19;;;;;;;0.57;0.50;;;18.20;99.90;;;;;;5051869;28;20185;-86
2021/08/19 01:56:44;;;;;;;0.30;0.20;;;18.10;99.90;;;;;;5049456;28;20190;-86
2021/08/19 01:59:11;;;;;;;0.10;0.10;;;18.10;99.90;;;;;;5051421;28;20615;-86
2021/08/19 02:01:36;;;;;;;2.53;0.40;;;18.10;99.90;;;;;;5053764;28;20186;-86
2021/08/19 02:04:03;;;;;;;0.47;0.47;;;18.10;99.90;;;;;;5049376;28;20181;-86
2021/08/19 02:06:28;;;;;;;0.77;0.20;;;18.10;99.90;;;;;;5051256;28;20548;-86
2021/08/19 02:08:54;;;;;;;0.80;0.80;;;18.10;99.90;;;;;;5053774;28;20287;-86
2021/08/19 02:11:20;;;;;;;0.73;0.30;;;18.00;99.90;;;;;;5055162;28;20219;-86
2021/08/19 02:13:47;;;;;;;0.30;0.30;;;17.80;99.90;;;;;;5048185;28;20553;-86
2021/08/19 02:16:13;;;;;;;0.20;0.20;;;17.70;99.90;;;;;;5052641;28;20207;-86
2021/08/19 02:18:38;;;;;;;0.93;0.30;;;17.70;99.90;;;;;;5046888;28;20213;-86
2021/08/19 02:21:04;;;;;;;0.40;0.40;;;17.70;99.90;;;;;;5051520;28;20721;-86
2021/08/19 02:23:30;;;;;;;0.30;0.30;;;17.60;99.90;;;;;;5053369;28;20186;-87
2021/08/19 02:25:55;;;;;;;1.30;0.20;;;17.60;99.90;;;;;;5053332;28;20192;-86
2021/08/19 02:28:21;;;;;;;0.40;0.40;;;17.50;99.90;;;;;;5052658;28;20735;-86
2021/08/19 02:30:46;;;;;;;0.50;0.40;;;17.50;99.90;;;;;;5053215;28;20211;-86
2021/08/19 02:33:12;;;;;;;0.10;0.10;;;17.50;99.90;;;;;;5049595;28;20185;-86
2021/08/19 02:35:38;;;;;;;0.20;0.20;;;17.60;99.90;;;;;;5051884;28;20616;-86
2021/08/19 02:38:06;;;;;;;0.30;0.30;;;17.60;99.90;;;;;;5050359;28;20247;-86
2021/08/19 02:40:35;;;;;;;0.30;0.30;;;17.60;99.90;;;;;;5051576;28;20596;-86
2021/08/19 02:43:01;;;;;;;1.07;0.20;;;17.60;99.90;;;;;;5048261;28;20182;-86
2021/08/19 02:45:26;;;;;;;0.27;0.27;;;17.60;99.90;;;;;;5051673;28;20583;-86
2021/08/19 02:47:52;;;;;;;0.10;0.10;;;17.60;99.90;;;;;;5046886;28;20209;-86
2021/08/19 02:50:17;;;;;;;0.10;0.10;;;17.60;99.90;;;;;;5051078;28;20649;-86
2021/08/19 02:52:43;;;;;;;0.10;0.10;;;17.60;99.90;;;;;;5052289;28;20193;-86
2021/08/19 02:55:09;;;;;;;0.30;0.30;;;17.70;99.90;;;;;;5053026;28;20200;-86
2021/08/19 02:57:35;;;;;;;0.10;0.10;;;17.80;99.90;;;;;;5045863;28;20182;-86
2021/08/19 03:00:01;;;;;;;0.37;0.30;;;17.80;99.90;;;;;;5052071;28;20257;-86
2021/08/19 03:02:26;;;;;;;0.20;0.20;;;17.80;99.90;;;;;;5050371;28;20181;-86
2021/08/19 03:04:52;;;;;;;0.27;0.27;;;17.90;99.90;;;;;;5052878;28;20177;-86
2021/08/19 03:07:18;;;;;;;0.20;0.20;;;17.80;99.90;;;;;;5051348;28;20196;-86
2021/08/19 03:09:43;;;;;;;0.20;0.20;;;17.80;99.90;;;;;;5065420;22;20252;-86
2021/08/19 03:12:09;;;;;;;0.20;0.20;;;17.70;99.90;;;;;;5065557;28;20269;-85
2021/08/19 03:14:35;;;;;;;0.30;0.30;;;17.70;99.90;;;;;;5037137;28;20177;-84
2021/08/19 03:17:01;;;;;;;0.13;0.13;;;17.60;99.90;;;;;;5040771;28;20272;-84
2021/08/19 03:19:27;;;;;;;0.40;0.33;;;17.50;99.90;;;;;;5052759;28;20737;-84
2021/08/19 03:21:53;;;;;;;0.23;0.23;;;17.60;99.90;;;;;;5051250;28;20182;-85
2021/08/19 03:24:19;;;;;;;0.20;0.20;;;17.60;99.90;;;;;;5052210;28;20178;-84
2021/08/19 03:26:44;;;;;;;0.30;0.30;;;17.60;99.90;;;;;;5058706;28;20192;-85
2021/08/19 03:29:11;;;;;;;0.37;0.37;;;17.60;99.90;;;;;;5053868;28;20220;-84
2021/08/19 03:31:37;;;;;;;0.27;0.27;;;17.60;99.90;;;;;;5050973;28;21125;-84
2021/08/19 03:34:02;;;;;;;0.20;0.20;;;17.50;99.90;;;;;;5052791;28;20193;-84
2021/08/19 03:36:28;;;;;;;0.33;0.33;;;17.50;99.90;;;;;;5049187;28;20192;-84
2021/08/19 03:38:53;;;;;;;0.30;0.30;;;17.50;99.90;;;;;;5033337;28;20192;-84
2021/08/19 03:41:20;;;;;;;0.73;0.73;;;17.40;99.90;;;;;;5031511;28;20557;-84
2021/08/19 03:43:46;;;;;;;0.73;0.30;;;17.40;99.90;;;;;;5052148;28;20725;-84
2021/08/19 03:46:13;;;;;;;0.40;0.33;;;17.40;99.90;;;;;;5050794;28;20265;-84
2021/08/19 03:48:38;;;;;;;0.33;0.10;;;17.40;99.90;;;;;;5034545;28;20220;-84
2021/08/19 03:51:04;;;;;;;0.20;0.20;;;17.40;99.90;;;;;;5033242;28;20177;-84
2021/08/19 03:53:30;;;;;;;0.10;0.10;;;17.50;99.90;;;;;;5034642;28;20189;-84
2021/08/19 03:55:55;;;;;;;0.27;0.27;;;17.50;99.90;;;;;;5050600;28;20177;-84
2021/08/19 03:58:21;;;;;;;0.23;0.23;;;17.50;99.90;;;;;;5050430;28;20189;-85
2021/08/19 04:00:48;;;;;;;0.20;0.20;;;17.50;99.90;;;;;;5032652;28;20206;-84
2021/08/19 04:03:14;;;;;;;0.37;0.37;;;17.40;99.90;;;;;;5033260;28;20276;-84
2021/08/19 04:05:41;;;;;;;0.93;0.43;;;17.40;99.90;;;;;;5050583;28;20192;-84
2021/08/19 04:08:06;;;;;;;0.20;0.20;;;17.40;99.90;;;;;;5049736;28;20188;-84
2021/08/19 04:10:32;;;;;;;0.83;0.47;;;17.40;99.90;;;;;;5032798;28;20217;-84
2021/08/19 04:12:58;;;;;;;1.10;0.30;;;17.50;99.90;;;;;;5055292;28;20199;-84
2021/08/19 04:15:23;;;;;;;0.40;0.40;;;17.50;99.90;;;;;;5034203;28;20195;-84
2021/08/19 04:17:52;;;;;;;0.30;0.23;;;17.50;99.90;;;;;;5055386;28;20236;-84
2021/08/19 04:20:18;;;;;;;0.23;0.23;;;17.60;99.90;;;;;;5030550;28;20296;-84
2021/08/19 04:22:43;;;;;;;0.10;0.10;;;17.50;99.90;;;;;;5038955;28;20625;-86
2021/08/19 04:25:10;;;;;;;0.40;0.40;;;17.60;99.90;;;;;;5035486;28;20190;-86
2021/08/19 04:27:35;;;;;;;0.40;0.40;;;17.50;99.90;;;;;;5028885;28;20692;-84
2021/08/19 04:30:01;;;;;;;0.43;0.40;;;17.60;99.90;;;;;;5049862;28;20205;-84
2021/08/19 04:32:26;;;;;;;0.20;0.20;;;17.60;99.90;;;;;;5035236;28;20191;-82
2021/08/19 04:34:52;;;;;;;0.27;0.27;;;17.50;99.90;;;;;;5050016;28;20180;-84
2021/08/19 04:37:17;;;;;;;0.30;0.30;;;17.50;99.90;;;;;;5064677;28;20180;-84
2021/08/19 04:39:43;;;;;;;0.50;0.43;;;17.50;99.90;;;;;;5050499;28;20345;-84
2021/08/19 04:42:09;;;;;;;0.47;0.47;;;17.60;99.90;;;;;;5050707;28;20676;-84
2021/08/19 04:44:34;;;;;;;0.30;0.30;;;17.50;99.90;;;;;;5051543;28;20271;-87
2021/08/19 04:47:00;;;;;;;0.10;0.10;;;17.50;99.90;;;;;;5045084;28;20191;-87
2021/08/19 04:49:26;;;;;;;0.30;0.30;;;17.60;99.90;;;;;;5034440;28;20228;-87
2021/08/19 04:51:52;;;;;;;0.10;0.10;;;17.60;99.90;;;;;;5037583;28;20177;-86
2021/08/19 04:54:17;;;;;;;0.40;0.40;;;17.60;99.90;;;;;;5036207;28;20192;-87
2021/08/19 04:56:43;;;;;;;0.40;0.40;;;17.60;99.90;;;;;;5034220;28;20209;-87
2021/08/19 04:59:10;;;;;;;0.37;0.37;;;17.70;99.90;;;;;;5054445;28;20207;-83
2021/08/19 05:01:36;;;;;;;0.30;0.30;;;17.60;99.90;;;;;;5033232;28;20193;-83
2021/08/19 05:04:03;;;;;;;0.53;0.23;;;17.70;99.90;;;;;;5058263;28;20276;-84
2021/08/19 05:06:32;;;;;;;0.30;0.30;;;17.70;99.90;;;;;;5035990;28;20189;-84
2021/08/19 05:09:00;;;;;;;0.10;0.10;;;17.80;99.90;;;;;;5054095;28;20233;-84
2021/08/19 05:11:26;;;;;;;1.40;0.70;;;17.80;99.90;;;;;;5040443;28;20197;-84
2021/08/19 05:13:52;;;;;;;0.40;0.40;;;17.80;99.90;;;;;;5040479;28;20560;-84
2021/08/19 05:16:18;;;;;;;0.40;0.40;;;17.80;99.90;;;;;;5043955;28;20181;-86
2021/08/19 05:18:44;;;;;;;0.50;0.50;;;17.80;99.90;;;;;;5047111;28;20184;-88
2021/08/19 05:21:10;;;;;;;0.47;0.47;;;17.80;99.90;;;;;;5037605;28;20209;-88
2021/08/19 05:23:36;;;;;;;0.50;0.50;;;17.80;99.90;;;;;;5037470;28;20197;-85
2021/08/19 05:26:02;;;;;;;0.30;0.30;;;17.80;99.90;;;;;;5052582;28;20182;-85
2021/08/19 05:28:31;;;;;;;0.43;0.43;;;17.80;99.90;;;;;;5036196;28;20205;-85
2021/08/19 05:30:56;;;;;;;0.47;0.40;;;17.80;99.90;;;;;;5031750;28;20271;-84
2021/08/19 05:33:24;;;;;;;0.57;0.33;;;17.90;99.90;;;;;;5050918;28;20669;-85
2021/08/19 05:35:50;;;;;;;0.30;0.30;;;17.90;99.90;;;;;;5031299;28;20173;-85
2021/08/19 05:38:15;;;;;;;0.30;0.30;;;18.00;99.90;;;;;;5033753;28;20195;-85
2021/08/19 05:40:41;;;;;;;0.27;0.27;;;18.00;99.90;;;;;;5036550;28;20280;-85
2021/08/19 05:43:06;;;;;;;0.20;0.20;;;18.00;99.90;;;;;;5028580;28;20185;-85
2021/08/19 05:45:33;;;;;;;0.23;0.23;;;18.10;99.90;;;;;;5036326;28;20182;-85
2021/08/19 05:48:01;;;;;;;0.17;0.17;;;18.10;99.90;;;;;;5032398;28;20185;-85
2021/08/19 05:50:27;;;;;;;0.50;0.50;;;18.30;99.90;;;;;;5035749;28;20288;-85
2021/08/19 05:52:52;;;;;;;0.40;0.40;;;18.40;99.90;;;;;;5034955;28;20686;-85
2021/08/19 05:55:18;;;;;;;0.57;0.57;;;18.40;99.90;;;;;;5035579;28;20581;-84
2021/08/19 05:57:46;;;;;;;0.33;0.33;;;18.50;99.90;;;;;;5036231;28;20269;-85
2021/08/19 06:00:13;;;;;;;0.23;0.23;;;18.60;99.90;;;;;;5035769;28;20296;-85
2021/08/19 06:02:38;;;;;;;3.90;0.33;;;18.60;99.90;;;;;;5035249;28;20196;-85
2021/08/19 06:05:05;;;;;;;1.03;0.73;;;18.60;99.90;;;;;;5054086;28;20181;-87
2021/08/19 06:07:30;;;;;;;0.30;0.30;;;18.50;99.90;;;;;;5036000;28;20280;-89
2021/08/19 06:09:56;;;;;;;0.23;0.23;;;18.60;99.90;;;;;;5061544;28;20304;-85
2021/08/19 06:12:21;;;;;;;0.23;0.23;;;18.60;99.90;;;;;;5057573;28;20202;-84
2021/08/19 06:14:47;;;;;;;0.13;0.13;;;18.70;99.90;;;;;;5034089;28;20189;-84
2021/08/19 06:17:13;;;;;;;0.43;0.27;;;18.60;99.90;;;;;;5033304;28;20795;-84
2021/08/19 06:19:38;;;;;;;0.87;0.77;;;18.60;99.90;;;;;;5033476;28;20209;-85
2021/08/19 06:22:05;;;;;;;0.20;0.20;;;18.70;99.90;;;;;;5034745;28;20182;-85
2021/08/19 06:24:31;;;;;;;1.50;0.30;;;18.80;99.90;;;;;;5034844;28;20336;-84
2021/08/19 06:26:57;;;;;;;1.17;0.20;;;18.80;99.90;;;;;;5034258;28;20198;-84
2021/08/19 06:29:23;;;;;;;0.40;0.40;;;18.70;99.90;;;;;;5052019;28;20639;-84
2021/08/19 06:31:48;;;;;;;2.80;0.20;;;18.60;99.90;;;;;;5035676;28;20177;-84
2021/08/19 06:34:14;;;;;;;0.30;0.30;;;18.70;99.90;;;;;;5049297;28;20534;-84
2021/08/19 06:36:41;;;;;;;0.30;0.30;;;18.80;99.90;;;;;;5032360;28;20541;-84
2021/08/19 06:39:07;;;;;;;1.30;0.30;;;18.90;99.90;;;;;;5030748;28;20255;-85
2021/08/19 06:41:32;;;;;;;0.33;0.33;;;18.90;99.90;;;;;;5051562;28;20193;-85
2021/08/19 06:43:58;;;;;;;0.10;0.10;;;18.90;99.90;;;;;;5032632;28;20284;-84
2021/08/19 06:46:23;;;;;;;0.50;0.20;;;18.90;99.90;;;;;;5034367;28;20198;-85
2021/08/19 06:48:49;;;;;;;0.30;0.30;;;19.00;99.90;;;;;;5027942;28;20214;-84
2021/08/19 06:51:15;;;;;;;0.30;0.30;;;19.10;99.90;;;;;;5028064;28;20190;-85
2021/08/19 06:53:40;;;;;;;0.37;0.37;;;19.20;99.90;;;;;;5053200;28;20657;-84
2021/08/19 06:56:06;;;;;;;0.37;0.37;;;19.20;99.90;;;;;;5035119;28;20231;-85
2021/08/19 06:58:31;;;;;;;0.20;0.20;;;19.10;99.90;;;;;;5052289;28;20243;-85
2021/08/19 07:00:57;;;;;;;0.30;0.30;;;19.20;99.90;;;;;;5035272;28;20692;-84
2021/08/19 07:03:23;;;;;;;0.47;0.47;;;19.30;99.90;;;;;;5035385;28;20299;-85
2021/08/19 07:05:49;;;;;;;0.30;0.30;;;19.40;99.90;;;;;;5052410;28;20315;-85
2021/08/19 07:08:15;;;;;;;0.23;0.23;;;19.40;99.90;;;;;;5044655;28;20209;-84
2021/08/19 07:10:42;;;;;;;0.30;0.30;;;19.40;99.90;;;;;;5035074;28;20229;-85
2021/08/19 07:13:08;;;;;;;0.10;0.10;;;19.30;99.90;;;;;;5035016;28;20192;-85
2021/08/19 07:15:34;;;;;;;0.47;0.47;;;19.40;99.90;;;;;;5052127;28;20172;-84
2021/08/19 07:17:59;;;;;;;0.10;0.10;;;19.40;99.90;;;;;;5042459;28;20264;-85
2021/08/19 07:20:25;;;;;;;0.53;0.50;;;19.50;99.90;;;;;;5034711;28;20824;-85
2021/08/19 07:22:50;;;;;;;0.10;0.10;;;19.50;99.90;;;;;;5034912;28;20192;-85
2021/08/19 07:25:17;;;;;;;0.30;0.30;;;19.50;99.90;;;;;;5034743;28;20603;-85
2021/08/19 07:27:43;;;;;;;0.27;0.27;;;19.50;99.90;;;;;;5034249;28;20185;-85
2021/08/19 07:30:11;;;;;;;0.33;0.27;;;19.50;99.90;;;;;;5034745;28;20226;-85
2021/08/19 07:32:37;;;;;;;1.50;0.30;;;19.50;99.90;;;;;;5034563;28;20186;-85
2021/08/19 07:35:04;;;;;;;0.37;0.37;;;19.80;99.90;;;;;;5034207;28;20201;-85
2021/08/19 07:37:30;;;;;;;0.43;0.43;;;20.20;99.90;;;;;;5034131;28;20184;-86
2021/08/19 07:39:56;;;;;;;0.30;0.30;;;20.30;99.90;;;;;;5052256;28;20208;-85
2021/08/19 07:42:21;;;;;;;0.20;0.20;;;20.20;99.90;;;;;;5052319;28;20186;-85
2021/08/19 07:44:47;;;;;;;0.10;0.10;;;20.20;99.90;;;;;;5034524;28;20560;-85
2021/08/19 07:47:13;;;;;;;0.30;0.30;;;20.30;99.90;;;;;;5034021;28;20586;-85
2021/08/19 07:49:38;;;;;;;0.20;0.20;;;20.40;99.90;;;;;;5047291;28;20254;-85
2021/08/19 07:52:04;;;;;;;0.23;0.23;;;20.50;99.90;;;;;;5032447;28;20653;-87
2021/08/19 07:54:30;;;;;;;0.30;0.30;;;20.60;99.90;;;;;;5036954;28;20183;-87
2021/08/19 07:56:55;;;;;;;0.53;0.50;;;20.70;99.90;;;;;;5032513;28;20174;-84
2021/08/19 07:59:22;;;;;;;0.30;0.30;;;20.70;99.90;;;;;;5047656;28;20218;-85
2021/08/19 08:01:47;;;;;;;0.60;0.57;;;20.60;99.90;;;;;;5049932;28;20189;-84
2021/08/19 08:04:13;;;;;;;0.37;0.30;;;20.40;99.90;;;;;;5031555;28;20200;-85
2021/08/19 08:06:40;;;;;;;0.50;0.30;;;20.60;99.90;;;;;;5044240;28;20186;-86
2021/08/19 08:09:05;;;;;;;0.27;0.23;;;20.70;99.90;;;;;;5032091;28;20210;-87
2021/08/19 08:11:31;;;;;;;1.13;0.93;;;20.70;99.90;;;;;;5029636;28;20186;-86
2021/08/19 08:13:57;;;;;;;0.20;0.20;;;20.70;99.90;;;;;;5031855;28;20311;-86
2021/08/19 08:16:23;;;;;;;0.60;0.60;;;20.80;99.90;;;;;;5032925;28;20190;-87
2021/08/19 08:18:49;;;;;;;0.50;0.50;;;20.90;99.90;;;;;;5029713;28;20190;-86
2021/08/19 08:21:14;;;;;;;0.37;0.30;;;20.70;99.90;;;;;;5050586;28;20185;-88
2021/08/19 08:23:41;;;;;;;0.50;0.50;;;20.80;99.90;;;;;;5046388;28;20182;-87
2021/08/19 08:26:06;;;;;;;0.23;0.23;;;20.80;99.90;;;;;;5030214;28;20219;-86
2021/08/19 08:28:32;;;;;;;0.30;0.30;;;20.80;99.90;;;;;;5053861;28;20664;-87
2021/08/19 08:30:59;;;;;;;0.50;0.50;;;21.00;99.90;;;;;;5047044;28;20209;-86
2021/08/19 08:33:26;;;;;;;3.50;0.80;;;21.00;99.90;;;;;;5042212;28;20244;-87
2021/08/19 08:36:00;;;;;;;0.33;0.33;;;21.20;99.90;;;;;;5046935;28;20184;-88
2021/08/19 08:38:26;;;;;;;0.53;0.50;;;21.40;99.90;;;;;;5043766;28;20259;-85
2021/08/19 08:40:53;;;;;;;0.23;0.23;;;21.40;99.90;;;;;;5048181;28;20248;-85
2021/08/19 08:43:21;;;;;;;0.20;0.20;;;21.50;99.90;;;;;;5030766;28;20197;-85
2021/08/19 08:45:48;;;;;;;0.20;0.20;;;21.60;99.90;;;;;;5043794;28;20193;-86
2021/08/19 08:48:26;;;;;;;0.23;0.23;;;21.50;99.90;;;;;;5052811;28;20204;-84
2021/08/19 08:50:54;;;;;;;1.27;0.63;;;21.40;99.90;;;;;;5041116;28;20194;-84
2021/08/19 08:53:20;;;;;;;0.50;0.50;;;21.40;99.90;;;;;;5052998;28;20177;-85
2021/08/19 08:55:46;;;;;;;0.40;0.40;;;21.30;99.90;;;;;;5037265;28;20596;-85
2021/08/19 08:58:13;;;;;;;0.33;0.33;;;21.30;99.90;;;;;;5054157;28;20185;-85
2021/08/19 09:00:44;;;;;;;0.20;0.13;;;21.40;99.90;;;;;;5054199;28;20259;-84
2021/08/19 09:03:12;;;;;;;0.43;0.43;;;21.50;99.90;;;;;;5035630;28;20184;-84
2021/08/19 09:05:41;;;;;;;0.43;0.43;;;21.70;99.90;;;;;;5049119;28;20181;-85
2021/08/19 09:08:13;;;;;;;0.20;0.20;;;21.70;99.90;;;;;;5036027;28;20193;-84
2021/08/19 09:10:39;;;;;;;0.27;0.27;;;21.60;99.90;;;;;;5031784;28;20210;-85
2021/08/19 09:13:15;;;;;;;0.77;0.33;;;21.50;99.90;;;;;;5033723;28;20247;-86
2021/08/19 09:15:42;;;;;;;0.30;0.30;;;21.50;99.90;;;;;;5053877;28;20185;-85
2021/08/19 09:18:08;;;;;;;0.20;0.20;;;21.60;99.90;;;;;;5035852;28;20658;-86
2021/08/19 09:20:35;;;;;;;0.73;0.70;;;21.70;99.90;;;;;;5033184;28;20202;-85
2021/08/19 09:23:14;;;;;;;0.40;0.40;;;22.00;99.90;;;;;;5034730;28;20264;-85
2021/08/19 09:25:43;;;;;;;0.20;0.20;;;22.10;99.90;;;;;;5045472;28;20690;-84
2021/08/19 09:28:21;;;;;;;0.20;0.20;;;22.60;99.90;;;;;;5034519;28;20653;-85
2021/08/19 09:31:04;;;;;;;0.53;0.33;;;22.80;99.90;;;;;;5047444;28;20276;-86
2021/08/19 09:33:33;;;;;;;0.50;0.50;;;22.90;99.90;;;;;;5051257;28;20185;-86
2021/08/19 09:36:01;;;;;;;0.10;0.10;;;23.50;99.90;;;;;;5031765;28;20264;-85
2021/08/19 09:38:36;;;;;;;0.80;0.70;;;23.90;99.90;;;;;;5045520;28;20669;-84
2021/08/19 09:41:13;;;;;;;0.47;0.47;;;24.10;99.90;;;;;;5028140;28;20208;-85
2021/08/19 09:43:44;;;;;;;0.30;0.30;;;24.00;99.90;;;;;;5031766;28;20186;-85
2021/08/19 09:46:12;;;;;;;0.30;0.30;;;23.70;99.90;;;;;;5033879;28;20178;-85
2021/08/19 09:48:38;;;;;;;0.83;0.20;;;23.70;99.90;;;;;;5024528;28;20211;-84
2021/08/19 09:51:24;;;;;;;0.30;0.30;;;24.10;99.90;;;;;;5051082;28;20751;-85
2021/08/19 09:53:58;;;;;;;0.53;0.30;;;24.30;99.90;;;;;;5051432;28;20174;-85
2021/08/19 09:56:36;;;;;;;0.20;0.20;;;24.20;99.90;;;;;;5033123;28;20207;-85
2021/08/19 09:59:24;;;;;;;0.57;0.57;;;24.00;99.90;;;;;;5036640;28;20605;-86
2021/08/19 10:01:53;;;;;;;0.50;0.50;;;24.00;99.90;;;;;;5036056;28;20197;-86
2021/08/19 10:04:20;;;;;;;0.93;0.73;;;24.10;99.90;;;;;;5042769;28;20174;-83
2021/08/19 10:06:46;;;;;;;0.40;0.40;;;24.00;99.90;;;;;;5033879;28;20248;-85
2021/08/19 10:09:15;;;;;;;0.37;0.30;;;23.80;99.90;;;;;;5026231;28;20705;-85
2021/08/19 10:11:45;;;;;;;0.30;0.30;;;24.00;99.90;;;;;;5034411;28;20182;-85
2021/08/19 10:14:21;;;;;;;0.37;0.37;;;24.20;99.90;;;;;;5053950;28;20196;-85
2021/08/19 10:16:47;;;;;;;0.77;0.77;;;24.10;99.90;;;;;;5053551;28;20265;-85
2021/08/19 10:19:33;;;;;;;0.30;0.30;;;23.80;99.90;;;;;;5052831;28;20217;-85
2021/08/19 10:22:21;;;;;;;0.40;0.40;;;23.50;99.90;;;;;;5046858;28;20582;-83
2021/08/19 10:24:52;;;;;;;0.40;0.40;;;23.50;99.90;;;;;;5047229;28;20268;-86
2021/08/19 10:27:19;;;;;;;0.60;0.40;;;23.50;99.90;;;;;;5052085;28;20291;-85
2021/08/19 10:29:51;;;;;;;0.50;0.50;;;23.50;99.90;;;;;;5047122;28;20229;-85
2021/08/19 10:32:56;;;;;;;0.57;0.57;;;23.30;99.90;;;;;;5051704;28;20646;-85
2021/08/19 10:35:29;;;;;;;0.50;0.50;;;23.10;99.90;;;;;;5026547;28;20192;-84
2021/08/19 10:37:54;;;;;;;0.60;0.60;;;23.20;99.90;;;;;;5028810;28;20181;-86
2021/08/19 10:40:21;;;;;;;0.43;0.43;;;23.20;99.90;;;;;;5034599;28;20208;-85
2021/08/19 10:42:47;;;;;;;0.47;0.47;;;23.30;99.90;;;;;;5043736;28;20185;-85
2021/08/19 10:45:28;;;;;;;0.43;0.43;;;23.50;99.90;;;;;;5031093;28;20200;-86
2021/08/19 10:48:15;;;;;;;0.93;0.70;;;23.80;99.90;;;;;;5027973;28;20213;-85
2021/08/19 10:50:45;;;;;;;0.30;0.30;;;23.70;99.90;;;;;;5026025;28;20209;-84
2021/08/19 10:53:28;;;;;;;0.33;0.30;;;23.80;99.90;;;;;;5051378;28;20189;-85
2021/08/19 10:55:58;;;;;;;0.47;0.47;;;23.90;99.90;;;;;;5034403;28;20200;-85
2021/08/19 10:58:32;;;;;;;0.47;0.47;;;23.80;99.90;;;;;;5029726;28;20200;-85
2021/08/19 11:01:13;;;;;;;0.20;0.20;;;23.70;99.90;;;;;;5049354;28;20202;-85
2021/08/19 11:03:38;;;;;;;0.67;0.40;;;23.70;99.90;;;;;;5033522;28;20597;-86
2021/08/19 11:06:44;;;;;;;2.20;0.50;;;23.60;99.90;;;;;;5033988;28;20188;-85
2021/08/19 11:09:14;;;;;;;0.57;0.40;;;23.50;99.90;;;;;;5036960;28;20213;-85
2021/08/19 11:11:39;;;;;;;0.57;0.57;;;23.40;99.90;;;;;;5025813;28;20185;-85
2021/08/19 11:14:16;;;;;;;0.20;0.20;;;23.10;99.90;;;;;;5051775;28;20552;-85
2021/08/19 11:16:43;;;;;;;0.77;0.40;;;23.00;99.90;;;;;;5034271;28;20191;-85
2021/08/19 11:19:20;;;;;;;0.33;0.33;;;23.00;99.90;;;;;;5050971;28;20255;-85
2021/08/19 11:21:51;;;;;;;0.43;0.43;;;23.10;99.90;;;;;;5046952;28;20209;-85
2021/08/19 11:24:18;;;;;;;0.60;0.27;;;23.10;99.90;;;;;;5032216;28;20189;-85
2021/08/19 11:27:09;;;;;;;0.40;0.40;;;23.00;99.90;;;;;;5032421;28;20185;-85
2021/08/19 11:29:43;;;;;;;0.47;0.47;;;22.50;99.90;;;;;;5031953;28;20220;-85
2021/08/19 11:32:11;;;;;;;0.43;0.30;;;22.40;99.90;;;;;;5032267;28;20264;-85
2021/08/19 11:34:38;;;;;;;0.50;0.40;;;22.50;99.90;;;;;;5050570;28;20720;-84
2021/08/19 11:37:05;;;;;;;0.70;0.60;;;22.50;99.90;;;;;;5048243;28;20187;-84
2021/08/19 11:39:31;;;;;;;0.50;0.50;;;22.40;99.90;;;;;;5056857;28;20288;-85
2021/08/19 11:42:01;;;;;;;0.43;0.43;;;22.30;99.90;;;;;;5057573;28;20255;-84
2021/08/19 11:44:27;;;;;;;0.70;0.60;;;22.10;99.90;;;;;;5059690;28;20268;-84
2021/08/19 11:47:00;;;;;;;0.97;0.60;;;22.00;99.90;;;;;;5054431;28;20234;-84
2021/08/19 11:49:26;;;;;;;0.50;0.50;;;22.00;99.90;;;;;;5053724;28;20217;-85
2021/08/19 11:52:05;;;;;;;0.20;0.20;;;22.20;99.90;;;;;;5041409;28;20553;-84
2021/08/19 11:54:43;;;;;;;0.33;0.33;;;22.40;99.90;;;;;;5059256;28;20197;-85
2021/08/19 11:57:20;;;;;;;0.77;0.63;;;22.80;99.90;;;;;;5041521;28;20180;-84
2021/08/19 11:59:55;;;;;;;0.50;0.50;;;22.90;99.90;;;;;;5058782;28;20225;-85
2021/08/19 12:02:21;;;;;;;0.20;0.20;;;23.00;99.90;;;;;;5053688;28;20185;-85
2021/08/19 12:05:01;;;;;;;0.53;0.53;;;23.30;99.90;;;;;;5058171;28;20604;-85
2021/08/19 12:07:26;;;;;;;0.40;0.20;;;23.50;99.90;;;;;;5054993;28;20188;-85
2021/08/19 12:09:52;;;;;;;1.40;0.50;;;23.50;99.90;;;;;;5043233;28;20208;-84
2021/08/19 12:12:18;;;;;;;0.40;0.40;;;23.50;99.90;;;;;;5023615;28;20228;-85
2021/08/19 12:14:44;;;;;;;0.30;0.30;;;23.50;99.90;;;;;;5032798;28;20181;-86
2021/08/19 12:17:09;;;;;;;0.70;0.70;;;23.70;99.90;;;;;;5033360;28;20268;-85
2021/08/19 12:19:35;;;;;;;0.20;0.20;;;23.90;99.90;;;;;;5021519;28;20213;-84
2021/08/19 12:22:01;;;;;;;1.20;0.33;;;23.90;99.90;;;;;;5033548;28;20189;-85
2021/08/19 12:24:39;;;;;;;0.77;0.77;;;24.10;99.90;;;;;;5033281;28;20215;-85
2021/08/19 12:27:11;;;;;;;1.03;0.57;;;24.30;99.90;;;;;;5033439;28;20192;-85
2021/08/19 12:29:57;;;;;;;0.50;0.50;;;24.50;99.90;;;;;;5031976;28;20209;-85
2021/08/19 12:32:24;;;;;;;0.63;0.53;;;24.90;99.90;;;;;;5048074;28;20197;-85
2021/08/19 12:34:58;;;;;;;0.60;0.60;;;25.10;99.90;;;;;;5032711;28;20216;-86
2021/08/19 12:37:24;;;;;;;3.20;0.47;;;25.20;99.90;;;;;;5050315;28;20737;-85
2021/08/19 12:39:50;;;;;;;0.20;0.20;;;25.20;99.90;;;;;;5032934;28;20210;-85
2021/08/19 12:42:15;;;;;;;0.50;0.50;;;25.20;99.90;;;;;;5049402;28;20181;-85
2021/08/19 12:45:01;;;;;;;0.20;0.20;;;24.90;99.90;;;;;;5032074;28;20280;-84
2021/08/19 12:47:32;;;;;;;0.40;0.40;;;24.70;99.90;;;;;;5038581;28;20661;-84
2021/08/19 12:49:58;;;;;;;0.30;0.30;;;24.30;99.90;;;;;;5032389;28;20216;-85
2021/08/19 12:52:25;;;;;;;0.20;0.20;;;24.20;99.90;;;;;;5033802;28;20178;-85